Karvounis — C6AA3 — position and weather

sailwx.info

Track history (hours):
 
Tides and Currents Weather Stations Pressure Air Temp Water Temp Dewpoint Dewpoint Depression Visibility Wind Speed Wind Dir Waves Ship Positions

Karvounis

Last reported at 2018-May-22 05:10 UTC. Time now 2018-Jun-21 19:49 UTC.
Position N 01°12' E 103°36'.
Warning: this ship's position is 30 days out of date.

Length 274 m; draft 8.9 m.

Type: Ship. MMSI: 311073600.

Date/timePositionNaut miles runAvg speedWind from/ knotsBaromVisibWave heightAir tempDewpointWater temp
2018-May-22 05:10N 01°12' E 103°36'210.4
2018-May-22 05:00N 01°12' E 103°37'510.5
2018-May-22 04:30N 01°10' E 103°42'4 8.1
2018-May-22 04:00N 01°09' E 103°46'4 8.7
2018-May-22 03:30N 01°11' E 103°50'4 8.1
2018-May-22 02:59N 01°13' E 103°54'2 3.7
2018-May-22 02:30N 01°15' E 103°54'0 0.0
2018-May-21 05:11N 01°15' E 103°54'0 0.0
2018-May-21 04:59N 01°15' E 103°54'0 0.0
2018-May-21 04:12N 01°15' E 103°54'0 0.7
2018-May-21 04:00N 01°15' E 103°54'2 3.0
2018-May-21 03:30N 01°15' E 103°56'2 4.0
2018-May-21 02:59N 01°15' E 103°58'5 9.6
2018-May-21 02:30N 01°13' E 103°54'611.1
2018-May-21 01:58N 01°10' E 103°49'612.3
2018-May-21 01:30N 01°06' E 103°44'612.6
2018-May-21 01:00N 01°03' E 103°39'5 9.9
2018-May-21 00:30N 01°08' E 103°36'1 0.8
2018-May-20 23:44N 01°08' E 103°37'0 0.0
2018-May-20 23:16N 01°08' E 103°37'0 0.1
2018-May-20 22:49N 01°08' E 103°37'0 0.2
2018-May-20 22:29N 01°08' E 103°37'0 0.2
2018-May-20 21:59N 01°08' E 103°37'0 0.0
2018-May-20 21:29N 01°08' E 103°37'0 0.0
2018-May-20 20:58N 01°08' E 103°37'0 0.0
2018-May-20 20:29N 01°08' E 103°37'0 0.0
2018-May-20 19:59N 01°08' E 103°37'0 0.1
2018-May-20 19:08N 01°08' E 103°37'0 0.0
2018-May-20 18:56N 01°08' E 103°37'0 0.2
2018-May-20 18:29N 01°08' E 103°37'0 0.1
2018-May-20 17:47N 01°08' E 103°37'0 0.1
2018-May-20 17:29N 01°08' E 103°37'0 0.2
2018-May-20 16:47N 01°08' E 103°36'0 0.0
2018-May-20 16:26N 01°08' E 103°36'0 0.1
2018-May-20 15:59N 01°08' E 103°36'0 0.0
2018-May-20 15:28N 01°08' E 103°36'0 0.1
2018-May-20 14:58N 01°08' E 103°36'0 0.1
2018-May-20 14:23N 01°08' E 103°36'0 0.1
2018-May-20 13:56N 01°08' E 103°36'0 0.1
2018-May-20 13:28N 01°08' E 103°36'0 0.1
2018-May-20 12:59N 01°08' E 103°36'0 0.1
2018-May-20 12:29N 01°08' E 103°36'0 0.0
2018-May-20 11:56N 01°08' E 103°36'0 0.1
2018-May-20 11:22N 01°08' E 103°36'0 0.1
2018-May-20 10:58N 01°08' E 103°36'0 0.1
2018-May-20 10:28N 01°08' E 103°36'0 0.1
2018-May-20 09:59N 01°08' E 103°37'0 0.1
2018-May-20 09:29N 01°08' E 103°37'0 0.1
2018-May-20 08:59N 01°08' E 103°37'0 0.0
2018-May-20 08:29N 01°08' E 103°37'0 0.1
2018-May-20 07:55N 01°08' E 103°37'0 0.1
2018-May-20 07:29N 01°08' E 103°37'0 0.0
2018-May-20 06:59N 01°08' E 103°37'0 0.1
2018-May-20 06:23N 01°08' E 103°37'0 0.2
2018-May-20 05:41N 01°08' E 103°37'0 0.2
2018-May-20 05:14N 01°08' E 103°37'0 0.0
2018-May-20 04:56N 01°08' E 103°37'0 0.0
2018-May-20 00:56N 01°08' E 103°37'0 0.1
2018-May-20 00:29N 01°08' E 103°37'0 0.0
2018-May-19 23:59N 01°08' E 103°37'0 0.0
2018-May-19 23:28N 01°08' E 103°37'0 0.0
2018-May-19 22:59N 01°08' E 103°37'0 0.0
2018-May-19 22:22N 01°08' E 103°37'0 0.2
2018-May-19 21:59N 01°08' E 103°37'0 0.0
2018-May-19 21:29N 01°08' E 103°37'0 0.0
2018-May-19 20:59N 01°08' E 103°37'0 0.0
2018-May-19 20:26N 01°08' E 103°37'0 0.0
2018-May-19 19:59N 01°08' E 103°37'0 0.0
2018-May-19 19:29N 01°08' E 103°37'0 0.0
2018-May-19 18:53N 01°08' E 103°37'0 0.0
2018-May-19 18:29N 01°08' E 103°37'0 0.0
2018-May-19 17:59N 01°08' E 103°37'0 0.1
2018-May-19 17:28N 01°08' E 103°37'0 0.1
2018-May-19 16:59N 01°08' E 103°37'0 0.2
2018-May-19 16:28N 01°08' E 103°37'0 0.2
2018-May-19 15:59N 01°08' E 103°36'0 0.1
2018-May-19 15:23N 01°08' E 103°36'0 0.0
2018-May-19 14:58N 01°08' E 103°36'0 0.0
2018-May-19 14:28N 01°08' E 103°36'0 0.0
2018-May-19 13:56N 01°08' E 103°36'0 0.1
2018-May-19 13:29N 01°08' E 103°36'0 0.1
2018-May-19 12:56N 01°08' E 103°36'0 0.1
2018-May-19 12:28N 01°08' E 103°36'0 0.2
2018-May-19 11:59N 01°08' E 103°36'0 0.1
2018-May-19 11:29N 01°08' E 103°36'0 0.0
2018-May-19 10:59N 01°08' E 103°36'0 0.0
2018-May-19 10:29N 01°08' E 103°36'0 0.1
2018-May-19 09:59N 01°08' E 103°36'0 0.1
2018-May-19 09:29N 01°08' E 103°36'0 0.2
2018-May-19 08:59N 01°08' E 103°37'0 0.1
2018-May-19 08:26N 01°08' E 103°37'0 0.0
2018-May-19 07:56N 01°08' E 103°37'0 0.0
2018-May-19 07:28N 01°08' E 103°37'0 0.1
2018-May-19 06:59N 01°08' E 103°37'0 0.0
2018-May-19 06:23N 01°08' E 103°37'0 0.0
2018-May-19 05:58N 01°08' E 103°37'0 0.1
2018-May-19 05:29N 01°08' E 103°37'0 0.1
2018-May-19 04:58N 01°08' E 103°37'0 0.2
2018-May-19 04:26N 01°08' E 103°37'0 0.1
2018-May-19 03:55N 01°08' E 103°37'0 0.1
2018-May-19 03:29N 01°08' E 103°37'0 0.0
2018-May-19 02:44N 01°08' E 103°37'0 0.0
2018-May-19 02:29N 01°08' E 103°37'0 0.0
2018-May-19 01:56N 01°08' E 103°37'0 0.0
2018-May-19 01:23N 01°08' E 103°37'0 0.0
2018-May-19 00:56N 01°08' E 103°37'0 0.0
2018-May-19 00:26N 01°08' E 103°37'0 0.0
2018-May-18 23:56N 01°08' E 103°37'0 0.1
2018-May-18 23:28N 01°08' E 103°37'0 0.0
2018-May-18 22:59N 01°08' E 103°37'0 0.0
2018-May-18 22:23N 01°08' E 103°37'0 0.0
2018-May-18 21:59N 01°08' E 103°37'0 0.1
2018-May-18 21:26N 01°08' E 103°37'0 0.0
2018-May-18 20:59N 01°08' E 103°37'0 0.0
2018-May-18 20:26N 01°08' E 103°37'0 0.0
2018-May-18 19:59N 01°08' E 103°37'0 0.0
2018-May-18 19:29N 01°08' E 103°37'0 0.0
2018-May-18 18:59N 01°08' E 103°37'0 0.0
2018-May-18 18:29N 01°08' E 103°37'0 0.0
2018-May-18 17:59N 01°08' E 103°37'0 0.0
2018-May-18 17:29N 01°08' E 103°37'0 0.0
2018-May-18 16:59N 01°08' E 103°37'0 0.1
2018-May-18 16:29N 01°08' E 103°37'0 0.2
2018-May-18 15:59N 01°08' E 103°37'0 0.1
2018-May-18 15:29N 01°08' E 103°37'0 0.1
2018-May-18 14:59N 01°08' E 103°36'0 0.1
2018-May-18 14:29N 01°08' E 103°36'0 0.0
2018-May-18 13:59N 01°08' E 103°36'0 0.1
2018-May-18 13:29N 01°08' E 103°36'0 0.0
2018-May-18 12:59N 01°08' E 103°36'0 0.0
2018-May-18 12:29N 01°08' E 103°36'0 0.0
2018-May-18 11:59N 01°08' E 103°36'0 0.2
2018-May-18 11:29N 01°08' E 103°36'0 0.1
2018-May-18 10:59N 01°08' E 103°36'0 0.0
2018-May-18 10:29N 01°08' E 103°36'0 0.0
2018-May-18 09:59N 01°08' E 103°36'0 0.1
2018-May-18 09:29N 01°08' E 103°36'0 0.1
2018-May-18 08:59N 01°08' E 103°36'0 0.1
2018-May-18 08:28N 01°08' E 103°36'0 0.2
2018-May-18 07:58N 01°08' E 103°37'0 0.0
2018-May-18 07:29N 01°08' E 103°37'0 0.0
2018-May-18 06:59N 01°08' E 103°37'0 0.0
2018-May-18 06:25N 01°08' E 103°37'0 0.1
2018-May-18 05:59N 01°08' E 103°37'0 0.0
2018-May-18 05:29N 01°08' E 103°37'0 0.1
2018-May-18 04:59N 01°08' E 103°37'0 0.1
2018-May-18 04:29N 01°08' E 103°37'0 0.2
2018-May-18 03:59N 01°08' E 103°37'0 0.2
2018-May-18 03:29N 01°08' E 103°37'0 0.1
2018-May-18 02:59N 01°08' E 103°37'0 0.1
2018-May-18 02:26N 01°08' E 103°36'0 0.0
2018-May-18 01:59N 01°08' E 103°36'0 0.1
2018-May-18 01:26N 01°08' E 103°37'0 0.1
2018-May-18 00:58N 01°08' E 103°36'0 0.0
2018-May-18 00:28N 01°08' E 103°36'0 0.0
2018-May-17 23:59N 01°08' E 103°36'0 0.1
2018-May-17 23:17N 01°08' E 103°37'0 0.0
2018-May-17 22:53N 01°08' E 103°37'0 0.0
2018-May-17 22:29N 01°08' E 103°37'0 0.1
2018-May-17 21:59N 01°08' E 103°37'0 0.1
2018-May-17 21:26N 01°08' E 103°37'0 0.1
2018-May-17 20:58N 01°08' E 103°37'0 0.1
2018-May-17 20:29N 01°08' E 103°37'0 0.0
2018-May-17 19:59N 01°08' E 103°37'0 0.0
2018-May-17 19:28N 01°08' E 103°37'0 0.0
2018-May-17 18:58N 01°08' E 103°37'0 0.0
2018-May-17 18:28N 01°08' E 103°37'0 0.0
2018-May-17 17:58N 01°08' E 103°37'0 0.0
2018-May-17 17:28N 01°08' E 103°37'0 0.0
2018-May-17 16:59N 01°08' E 103°37'0 0.2
2018-May-17 16:28N 01°08' E 103°37'0 0.3
2018-May-17 15:59N 01°08' E 103°37'0 0.4
2018-May-17 15:29N 01°08' E 103°36'0 0.1
2018-May-17 14:56N 01°08' E 103°36'0 0.0
2018-May-17 14:29N 01°08' E 103°36'0 0.0
2018-May-17 13:58N 01°08' E 103°36'0 0.0
2018-May-17 13:26N 01°08' E 103°36'0 0.0
2018-May-17 12:56N 01°08' E 103°36'0 0.0
2018-May-17 12:29N 01°08' E 103°36'0 0.1
2018-May-17 11:58N 01°08' E 103°36'0 0.0
2018-May-17 11:26N 01°08' E 103°36'0 0.0
2018-May-17 10:53N 01°08' E 103°36'0 0.2
2018-May-17 10:29N 01°08' E 103°36'0 0.0
2018-May-17 09:56N 01°08' E 103°36'0 0.1
2018-May-17 09:29N 01°08' E 103°36'0 0.1
2018-May-17 08:59N 01°08' E 103°36'0 0.2
2018-May-17 08:29N 01°08' E 103°36'0 0.2
2018-May-17 07:56N 01°08' E 103°36'0 0.2
2018-May-17 07:26N 01°08' E 103°37'0 0.0
2018-May-17 06:59N 01°08' E 103°37'0 0.0
2018-May-17 06:29N 01°08' E 103°37'0 0.1
2018-May-17 05:59N 01°08' E 103°37'0 0.0
2018-May-17 05:26N 01°08' E 103°37'0 0.0
2018-May-17 04:59N 01°08' E 103°37'0 0.1
2018-May-17 04:29N 01°08' E 103°37'0 0.1
2018-May-17 03:53N 01°08' E 103°37'0 0.1
2018-May-17 03:29N 01°08' E 103°37'0 0.1
2018-May-17 02:59N 01°08' E 103°37'0 0.3
2018-May-17 02:29N 01°08' E 103°37'0 0.0
2018-May-17 01:59N 01°08' E 103°37'0 0.1
2018-May-17 01:26N 01°08' E 103°36'0 0.0
2018-May-17 00:56N 01°08' E 103°36'0 0.0
2018-May-17 00:28N 01°08' E 103°36'0 0.0
2018-May-16 23:59N 01°08' E 103°36'0 0.1
2018-May-16 23:26N 01°08' E 103°37'0 0.0
2018-May-16 22:53N 01°08' E 103°37'0 0.0
2018-May-16 22:26N 01°08' E 103°37'0 0.0
2018-May-16 21:59N 01°08' E 103°37'0 0.1
2018-May-16 21:29N 01°08' E 103°37'0 0.1
2018-May-16 20:59N 01°08' E 103°37'0 0.0
2018-May-16 20:29N 01°08' E 103°37'0 0.0
2018-May-16 19:59N 01°08' E 103°37'0 0.0
2018-May-16 19:26N 01°08' E 103°37'0 0.1
2018-May-16 18:59N 01°08' E 103°37'0 0.0
2018-May-16 18:29N 01°08' E 103°37'0 0.0
2018-May-16 17:59N 01°08' E 103°37'0 0.0
2018-May-16 17:29N 01°08' E 103°37'0 0.0
2018-May-16 16:58N 01°08' E 103°37'0 0.0
2018-May-16 16:28N 01°08' E 103°37'0 0.1
2018-May-16 15:59N 01°08' E 103°37'0 0.0
2018-May-16 15:28N 01°08' E 103°37'0 0.1
2018-May-16 14:55N 01°08' E 103°37'0 0.1
2018-May-16 14:28N 01°08' E 103°37'0 0.1
2018-May-16 13:58N 01°08' E 103°37'0 0.1
2018-May-16 13:29N 01°08' E 103°36'0 0.0
2018-May-16 12:53N 01°08' E 103°36'0 0.2
2018-May-16 12:29N 01°08' E 103°36'0 0.0
2018-May-16 11:59N 01°08' E 103°36'0 0.1
2018-May-16 11:22N 01°08' E 103°36'0 0.2
2018-May-16 10:58N 01°08' E 103°36'0 0.1
2018-May-16 10:28N 01°08' E 103°36'0 0.1
2018-May-16 09:59N 01°08' E 103°36'0 0.2
2018-May-16 09:29N 01°08' E 103°36'0 0.0
2018-May-16 08:56N 01°08' E 103°36'0 0.1
2018-May-16 08:29N 01°08' E 103°36'0 0.1
2018-May-16 07:56N 01°08' E 103°36'0 0.1
2018-May-16 07:29N 01°08' E 103°36'0 0.2
2018-May-16 06:58N 01°08' E 103°37'0 0.1
2018-May-16 06:29N 01°08' E 103°37'0 0.0
2018-May-16 05:58N 01°08' E 103°37'0 0.0
2018-May-16 05:29N 01°08' E 103°37'0 0.1
2018-May-16 04:55N 01°08' E 103°37'0 0.0
2018-May-16 04:20N 01°08' E 103°37'0 0.0
2018-May-16 03:56N 01°08' E 103°37'0 0.1
2018-May-16 03:28N 01°08' E 103°37'0 0.1
2018-May-16 02:58N 01°08' E 103°37'0 0.2
2018-May-16 02:28N 01°08' E 103°37'0 0.2
2018-May-16 01:56N 01°08' E 103°37'0 0.1
2018-May-16 01:17N 01°08' E 103°36'0 0.0
2018-May-16 00:50N 01°08' E 103°36'0 0.0
2018-May-16 00:29N 01°08' E 103°36'0 0.0
2018-May-15 23:59N 01°08' E 103°36'0 0.0
2018-May-15 23:28N 01°08' E 103°36'0 0.0
2018-May-15 22:59N 01°08' E 103°36'0 0.1
2018-May-15 22:29N 01°08' E 103°37'0 0.0
2018-May-15 21:59N 01°08' E 103°37'0 0.0
2018-May-15 21:29N 01°08' E 103°37'0 0.1
2018-May-15 20:59N 01°08' E 103°37'0 0.0
2018-May-15 20:29N 01°08' E 103°37'0 0.1
2018-May-15 19:59N 01°08' E 103°37'0 0.0
2018-May-15 19:28N 01°08' E 103°37'0 0.0
2018-May-15 18:53N 01°08' E 103°37'0 0.1
2018-May-15 18:23N 01°08' E 103°37'0 0.1
2018-May-15 17:59N 01°08' E 103°37'0 0.0
2018-May-15 17:26N 01°08' E 103°37'0 0.0
2018-May-15 16:56N 01°08' E 103°37'0 0.1
2018-May-15 16:26N 01°08' E 103°37'0 0.0
2018-May-15 15:58N 01°08' E 103°37'0 0.0
2018-May-15 15:26N 01°08' E 103°37'0 0.1
2018-May-15 14:59N 01°08' E 103°37'0 0.2
2018-May-15 14:20N 01°08' E 103°37'0 0.1
2018-May-15 13:53N 01°08' E 103°37'0 0.2
2018-May-15 13:29N 01°08' E 103°36'0 0.0
2018-May-15 12:59N 01°08' E 103°36'0 0.1
2018-May-15 12:26N 01°08' E 103°36'0 0.0
2018-May-15 11:55N 01°08' E 103°36'0 0.1
2018-May-15 11:28N 01°08' E 103°36'0 0.1
2018-May-15 10:59N 01°08' E 103°36'0 0.0
2018-May-15 10:29N 01°08' E 103°36'0 0.0
2018-May-15 09:59N 01°08' E 103°36'0 0.0
2018-May-15 09:28N 01°08' E 103°36'0 0.0
2018-May-15 08:58N 01°08' E 103°36'0 0.0
2018-May-15 08:29N 01°08' E 103°36'0 0.1
2018-May-15 07:59N 01°08' E 103°36'0 0.1
2018-May-15 07:28N 01°08' E 103°36'0 0.1
2018-May-15 06:56N 01°08' E 103°36'0 0.1
2018-May-15 06:25N 01°08' E 103°36'0 0.0
2018-May-15 05:56N 01°08' E 103°36'0 0.3
2018-May-15 05:28N 01°08' E 103°36'0 0.1
2018-May-15 04:59N 01°08' E 103°37'0 0.1
2018-May-15 04:29N 01°08' E 103°37'0 0.0
2018-May-15 03:56N 01°08' E 103°37'0 0.1
2018-May-15 03:26N 01°08' E 103°37'0 0.1
2018-May-15 02:58N 01°08' E 103°37'0 0.3
2018-May-15 02:28N 01°08' E 103°37'0 0.2
2018-May-15 01:53N 01°08' E 103°36'0 0.0
2018-May-15 01:14N 01°08' E 103°36'0 0.0
2018-May-15 00:59N 01°08' E 103°36'0 0.1
2018-May-15 00:20N 01°08' E 103°36'0 0.1
2018-May-14 23:50N 01°08' E 103°36'0 0.0
2018-May-14 23:29N 01°08' E 103°36'0 0.0
2018-May-14 22:59N 01°08' E 103°36'0 0.0
2018-May-14 22:29N 01°08' E 103°36'0 0.0
2018-May-14 21:58N 01°08' E 103°36'0 0.0
2018-May-14 21:20N 01°08' E 103°36'0 0.2
2018-May-14 20:56N 01°08' E 103°37'0 0.0
2018-May-14 20:26N 01°08' E 103°37'0 0.0
2018-May-14 19:56N 01°08' E 103°37'0 0.1
2018-May-14 19:28N 01°08' E 103°37'0 0.0
2018-May-14 18:55N 01°08' E 103°37'0 0.1
2018-May-14 18:25N 01°08' E 103°37'0 0.1
2018-May-14 17:58N 01°08' E 103°37'0 0.1
2018-May-14 17:28N 01°08' E 103°37'0 0.0
2018-May-14 16:59N 01°08' E 103°37'0 0.0
2018-May-14 16:28N 01°08' E 103°37'0 0.0
2018-May-14 15:58N 01°08' E 103°37'0 0.0
2018-May-14 15:25N 01°08' E 103°37'0 0.0
2018-May-14 14:59N 01°08' E 103°37'0 0.2
2018-May-14 14:29N 01°08' E 103°37'0 0.3
2018-May-14 13:59N 01°08' E 103°37'0 0.1
2018-May-14 13:26N 01°08' E 103°36'0 0.0
2018-May-14 12:59N 01°08' E 103°36'0 0.1
2018-May-14 12:26N 01°08' E 103°36'0 0.0
2018-May-14 11:50N 01°08' E 103°36'0 0.0
2018-May-14 11:26N 01°08' E 103°36'0 0.0
2018-May-14 10:59N 01°08' E 103°36'0 0.0
2018-May-14 10:29N 01°08' E 103°36'0 0.0
2018-May-14 09:59N 01°08' E 103°36'0 0.0
2018-May-14 09:28N 01°08' E 103°36'0 0.1
2018-May-14 08:58N 01°08' E 103°36'0 0.0
2018-May-14 08:22N 01°08' E 103°36'0 0.0
2018-May-14 07:59N 01°08' E 103°36'0 0.1
2018-May-14 07:29N 01°08' E 103°36'0 0.0
2018-May-14 06:53N 01°08' E 103°36'0 0.1
2018-May-14 06:29N 01°08' E 103°36'0 0.1
2018-May-14 05:59N 01°08' E 103°37'0 0.3
2018-May-14 05:29N 01°08' E 103°37'0 0.1
2018-May-14 04:59N 01°08' E 103°37'0 0.0
2018-May-14 04:29N 01°08' E 103°37'0 0.0
2018-May-14 03:59N 01°08' E 103°37'0 0.0
2018-May-14 03:28N 01°08' E 103°37'0 0.1
2018-May-14 02:59N 01°08' E 103°37'0 0.1
2018-May-14 02:25N 01°08' E 103°37'0 0.3
2018-May-14 01:59N 01°08' E 103°37'0 0.0
2018-May-14 01:29N 01°08' E 103°37'0 0.1
2018-May-14 00:59N 01°08' E 103°36'0 0.0
2018-May-14 00:25N 01°08' E 103°36'0 0.0
2018-May-13 23:58N 01°08' E 103°36'0 0.0
2018-May-13 23:29N 01°08' E 103°36'0 0.0
2018-May-13 22:56N 01°08' E 103°36'0 0.0
2018-May-13 22:25N 01°08' E 103°36'0 0.0
2018-May-13 21:58N 01°08' E 103°36'0 0.0
2018-May-13 21:29N 01°08' E 103°36'0 0.0
2018-May-13 20:56N 01°08' E 103°36'0 0.0
2018-May-13 20:29N 01°08' E 103°36'0 0.1
2018-May-13 19:50N 01°08' E 103°37'0 0.0
2018-May-13 19:29N 01°08' E 103°37'0 0.0
2018-May-13 18:59N 01°08' E 103°37'0 0.1
2018-May-13 18:26N 01°08' E 103°37'0 0.1
2018-May-13 17:59N 01°08' E 103°37'0 0.1
2018-May-13 17:29N 01°08' E 103°37'0 0.1
2018-May-13 16:59N 01°08' E 103°37'0 0.0
2018-May-13 16:29N 01°08' E 103°37'0 0.1
2018-May-13 15:59N 01°08' E 103°37'0 0.1
2018-May-13 15:29N 01°08' E 103°37'0 0.0
2018-May-13 14:56N 01°08' E 103°37'0 0.0
2018-May-13 14:26N 01°08' E 103°37'0 0.0
2018-May-13 13:59N 01°08' E 103°37'0 0.1
2018-May-13 13:26N 01°08' E 103°37'0 0.2
2018-May-13 12:53N 01°08' E 103°37'0 0.1
2018-May-13 10:35N 01°08' E 103°36'0 0.0
2018-May-13 10:17N 01°08' E 103°36'0 0.0
2018-May-13 09:56N 01°08' E 103°36'0 0.0
2018-May-13 08:47N 01°08' E 103°36'0 0.0
2018-May-13 07:23N 01°08' E 103°36'0 0.0
2018-May-13 06:47N 01°08' E 103°36'0 0.1
2018-May-13 03:44N 01°08' E 103°37'0 0.0
2018-May-13 02:26N 01°08' E 103°37'0 0.1
2018-May-13 00:59N 01°08' E 103°37'0 0.1
2018-May-13 00:29N 01°08' E 103°36'0 0.0
2018-May-12 23:58N 01°08' E 103°36'0 0.1
2018-May-12 23:23N 01°08' E 103°36'0 0.1
2018-May-12 22:53N 01°08' E 103°36'0 0.2
2018-May-12 22:29N 01°08' E 103°36'0 0.0
2018-May-12 21:52N 01°08' E 103°36'0 0.1
2018-May-12 21:29N 01°08' E 103°36'0 0.1
2018-May-12 20:59N 01°08' E 103°36'0 0.1
2018-May-12 20:29N 01°08' E 103°36'0 0.0
2018-May-12 19:59N 01°08' E 103°36'1 1.1
2018-May-12 19:31N 01°08' E 103°36'2 4.0
2018-May-12 18:59N 01°08' E 103°34'1 1.5
2018-May-12 18:30N 01°08' E 103°33'2 4.5
2018-May-12 18:00N 01°08' E 103°31'510.1
2018-May-12 17:30N 01°10' E 103°26'611.2
2018-May-12 17:00N 01°13' E 103°22'611.1
2018-May-12 16:30N 01°17' E 103°18'611.2
2018-May-12 15:59N 01°21' E 103°13'610.8
2018-May-12 15:28N 01°24' E 103°09'  
Track history (hours):
 
Tides and Currents Weather Stations Pressure Air Temp Water Temp Dewpoint Dewpoint Depression Visibility Wind Speed Wind Dir Waves Ship Positions

Karvounis

Last reported at 2018-May-22 05:10 UTC. Time now 2018-Jun-21 19:49 UTC.
Position N 01°12' E 103°36'.
Warning: this ship's position is 30 days out of date.

Length 274 m; draft 8.9 m.

Type: Ship. MMSI: 311073600.

Date/timePositionNaut miles runAvg speedWind from/ knotsBaromVisibWave heightAir tempDewpointWater temp
2018-May-22 05:10N 01°12' E 103°36'210.4
2018-May-22 05:00N 01°12' E 103°37'510.5
2018-May-22 04:30N 01°10' E 103°42'4 8.1
2018-May-22 04:00N 01°09' E 103°46'4 8.7
2018-May-22 03:30N 01°11' E 103°50'4 8.1
2018-May-22 02:59N 01°13' E 103°54'2 3.7
2018-May-22 02:30N 01°15' E 103°54'0 0.0
2018-May-21 05:11N 01°15' E 103°54'0 0.0
2018-May-21 04:59N 01°15' E 103°54'0 0.0
2018-May-21 04:12N 01°15' E 103°54'0 0.7
2018-May-21 04:00N 01°15' E 103°54'2 3.0
2018-May-21 03:30N 01°15' E 103°56'2 4.0
2018-May-21 02:59N 01°15' E 103°58'5 9.6
2018-May-21 02:30N 01°13' E 103°54'611.1
2018-May-21 01:58N 01°10' E 103°49'612.3
2018-May-21 01:30N 01°06' E 103°44'612.6
2018-May-21 01:00N 01°03' E 103°39'5 9.9
2018-May-21 00:30N 01°08' E 103°36'1 0.8
2018-May-20 23:44N 01°08' E 103°37'0 0.0
2018-May-20 23:16N 01°08' E 103°37'0 0.1
2018-May-20 22:49N 01°08' E 103°37'0 0.2
2018-May-20 22:29N 01°08' E 103°37'0 0.2
2018-May-20 21:59N 01°08' E 103°37'0 0.0
2018-May-20 21:29N 01°08' E 103°37'0 0.0
2018-May-20 20:58N 01°08' E 103°37'0 0.0
2018-May-20 20:29N 01°08' E 103°37'0 0.0
2018-May-20 19:59N 01°08' E 103°37'0 0.1
2018-May-20 19:08N 01°08' E 103°37'0 0.0
2018-May-20 18:56N 01°08' E 103°37'0 0.2
2018-May-20 18:29N 01°08' E 103°37'0 0.1
2018-May-20 17:47N 01°08' E 103°37'0 0.1
2018-May-20 17:29N 01°08' E 103°37'0 0.2
2018-May-20 16:47N 01°08' E 103°36'0 0.0
2018-May-20 16:26N 01°08' E 103°36'0 0.1
2018-May-20 15:59N 01°08' E 103°36'0 0.0
2018-May-20 15:28N 01°08' E 103°36'0 0.1
2018-May-20 14:58N 01°08' E 103°36'0 0.1
2018-May-20 14:23N 01°08' E 103°36'0 0.1
2018-May-20 13:56N 01°08' E 103°36'0 0.1
2018-May-20 13:28N 01°08' E 103°36'0 0.1
2018-May-20 12:59N 01°08' E 103°36'0 0.1
2018-May-20 12:29N 01°08' E 103°36'0 0.0
2018-May-20 11:56N 01°08' E 103°36'0 0.1
2018-May-20 11:22N 01°08' E 103°36'0 0.1
2018-May-20 10:58N 01°08' E 103°36'0 0.1
2018-May-20 10:28N 01°08' E 103°36'0 0.1
2018-May-20 09:59N 01°08' E 103°37'0 0.1
2018-May-20 09:29N 01°08' E 103°37'0 0.1
2018-May-20 08:59N 01°08' E 103°37'0 0.0
2018-May-20 08:29N 01°08' E 103°37'0 0.1
2018-May-20 07:55N 01°08' E 103°37'0 0.1
2018-May-20 07:29N 01°08' E 103°37'0 0.0
2018-May-20 06:59N 01°08' E 103°37'0 0.1
2018-May-20 06:23N 01°08' E 103°37'0 0.2
2018-May-20 05:41N 01°08' E 103°37'0 0.2
2018-May-20 05:14N 01°08' E 103°37'0 0.0
2018-May-20 04:56N 01°08' E 103°37'0 0.0
2018-May-20 00:56N 01°08' E 103°37'0 0.1
2018-May-20 00:29N 01°08' E 103°37'0 0.0
2018-May-19 23:59N 01°08' E 103°37'0 0.0
2018-May-19 23:28N 01°08' E 103°37'0 0.0
2018-May-19 22:59N 01°08' E 103°37'0 0.0
2018-May-19 22:22N 01°08' E 103°37'0 0.2
2018-May-19 21:59N 01°08' E 103°37'0 0.0
2018-May-19 21:29N 01°08' E 103°37'0 0.0
2018-May-19 20:59N 01°08' E 103°37'0 0.0
2018-May-19 20:26N 01°08' E 103°37'0 0.0
2018-May-19 19:59N 01°08' E 103°37'0 0.0
2018-May-19 19:29N 01°08' E 103°37'0 0.0
2018-May-19 18:53N 01°08' E 103°37'0 0.0
2018-May-19 18:29N 01°08' E 103°37'0 0.0
2018-May-19 17:59N 01°08' E 103°37'0 0.1
2018-May-19 17:28N 01°08' E 103°37'0 0.1
2018-May-19 16:59N 01°08' E 103°37'0 0.2
2018-May-19 16:28N 01°08' E 103°37'0 0.2
2018-May-19 15:59N 01°08' E 103°36'0 0.1
2018-May-19 15:23N 01°08' E 103°36'0 0.0
2018-May-19 14:58N 01°08' E 103°36'0 0.0
2018-May-19 14:28N 01°08' E 103°36'0 0.0
2018-May-19 13:56N 01°08' E 103°36'0 0.1
2018-May-19 13:29N 01°08' E 103°36'0 0.1
2018-May-19 12:56N 01°08' E 103°36'0 0.1
2018-May-19 12:28N 01°08' E 103°36'0 0.2
2018-May-19 11:59N 01°08' E 103°36'0 0.1
2018-May-19 11:29N 01°08' E 103°36'0 0.0
2018-May-19 10:59N 01°08' E 103°36'0 0.0
2018-May-19 10:29N 01°08' E 103°36'0 0.1
2018-May-19 09:59N 01°08' E 103°36'0 0.1
2018-May-19 09:29N 01°08' E 103°36'0 0.2
2018-May-19 08:59N 01°08' E 103°37'0 0.1
2018-May-19 08:26N 01°08' E 103°37'0 0.0
2018-May-19 07:56N 01°08' E 103°37'0 0.0
2018-May-19 07:28N 01°08' E 103°37'0 0.1
2018-May-19 06:59N 01°08' E 103°37'0 0.0
2018-May-19 06:23N 01°08' E 103°37'0 0.0
2018-May-19 05:58N 01°08' E 103°37'0 0.1
2018-May-19 05:29N 01°08' E 103°37'0 0.1
2018-May-19 04:58N 01°08' E 103°37'0 0.2
2018-May-19 04:26N 01°08' E 103°37'0 0.1
2018-May-19 03:55N 01°08' E 103°37'0 0.1
2018-May-19 03:29N 01°08' E 103°37'0 0.0
2018-May-19 02:44N 01°08' E 103°37'0 0.0
2018-May-19 02:29N 01°08' E 103°37'0 0.0
2018-May-19 01:56N 01°08' E 103°37'0 0.0
2018-May-19 01:23N 01°08' E 103°37'0 0.0
2018-May-19 00:56N 01°08' E 103°37'0 0.0
2018-May-19 00:26N 01°08' E 103°37'0 0.0
2018-May-18 23:56N 01°08' E 103°37'0 0.1
2018-May-18 23:28N 01°08' E 103°37'0 0.0
2018-May-18 22:59N 01°08' E 103°37'0 0.0
2018-May-18 22:23N 01°08' E 103°37'0 0.0
2018-May-18 21:59N 01°08' E 103°37'0 0.1
2018-May-18 21:26N 01°08' E 103°37'0 0.0
2018-May-18 20:59N 01°08' E 103°37'0 0.0
2018-May-18 20:26N 01°08' E 103°37'0 0.0
2018-May-18 19:59N 01°08' E 103°37'0 0.0
2018-May-18 19:29N 01°08' E 103°37'0 0.0
2018-May-18 18:59N 01°08' E 103°37'0 0.0
2018-May-18 18:29N 01°08' E 103°37'0 0.0
2018-May-18 17:59N 01°08' E 103°37'0 0.0
2018-May-18 17:29N 01°08' E 103°37'0 0.0
2018-May-18 16:59N 01°08' E 103°37'0 0.1
2018-May-18 16:29N 01°08' E 103°37'0 0.2
2018-May-18 15:59N 01°08' E 103°37'0 0.1
2018-May-18 15:29N 01°08' E 103°37'0 0.1
2018-May-18 14:59N 01°08' E 103°36'0 0.1
2018-May-18 14:29N 01°08' E 103°36'0 0.0
2018-May-18 13:59N 01°08' E 103°36'0 0.1
2018-May-18 13:29N 01°08' E 103°36'0 0.0
2018-May-18 12:59N 01°08' E 103°36'0 0.0
2018-May-18 12:29N 01°08' E 103°36'0 0.0
2018-May-18 11:59N 01°08' E 103°36'0 0.2
2018-May-18 11:29N 01°08' E 103°36'0 0.1
2018-May-18 10:59N 01°08' E 103°36'0 0.0
2018-May-18 10:29N 01°08' E 103°36'0 0.0
2018-May-18 09:59N 01°08' E 103°36'0 0.1
2018-May-18 09:29N 01°08' E 103°36'0 0.1
2018-May-18 08:59N 01°08' E 103°36'0 0.1
2018-May-18 08:28N 01°08' E 103°36'0 0.2
2018-May-18 07:58N 01°08' E 103°37'0 0.0
2018-May-18 07:29N 01°08' E 103°37'0 0.0
2018-May-18 06:59N 01°08' E 103°37'0 0.0
2018-May-18 06:25N 01°08' E 103°37'0 0.1
2018-May-18 05:59N 01°08' E 103°37'0 0.0
2018-May-18 05:29N 01°08' E 103°37'0 0.1
2018-May-18 04:59N 01°08' E 103°37'0 0.1
2018-May-18 04:29N 01°08' E 103°37'0 0.2
2018-May-18 03:59N 01°08' E 103°37'0 0.2
2018-May-18 03:29N 01°08' E 103°37'0 0.1
2018-May-18 02:59N 01°08' E 103°37'0 0.1
2018-May-18 02:26N 01°08' E 103°36'0 0.0
2018-May-18 01:59N 01°08' E 103°36'0 0.1
2018-May-18 01:26N 01°08' E 103°37'0 0.1
2018-May-18 00:58N 01°08' E 103°36'0 0.0
2018-May-18 00:28N 01°08' E 103°36'0 0.0
2018-May-17 23:59N 01°08' E 103°36'0 0.1
2018-May-17 23:17N 01°08' E 103°37'0 0.0
2018-May-17 22:53N 01°08' E 103°37'0 0.0
2018-May-17 22:29N 01°08' E 103°37'0 0.1
2018-May-17 21:59N 01°08' E 103°37'0 0.1
2018-May-17 21:26N 01°08' E 103°37'0 0.1
2018-May-17 20:58N 01°08' E 103°37'0 0.1
2018-May-17 20:29N 01°08' E 103°37'0 0.0
2018-May-17 19:59N 01°08' E 103°37'0 0.0
2018-May-17 19:28N 01°08' E 103°37'0 0.0
2018-May-17 18:58N 01°08' E 103°37'0 0.0
2018-May-17 18:28N 01°08' E 103°37'0 0.0
2018-May-17 17:58N 01°08' E 103°37'0 0.0
2018-May-17 17:28N 01°08' E 103°37'0 0.0
2018-May-17 16:59N 01°08' E 103°37'0 0.2
2018-May-17 16:28N 01°08' E 103°37'0 0.3
2018-May-17 15:59N 01°08' E 103°37'0 0.4
2018-May-17 15:29N 01°08' E 103°36'0 0.1
2018-May-17 14:56N 01°08' E 103°36'0 0.0
2018-May-17 14:29N 01°08' E 103°36'0 0.0
2018-May-17 13:58N 01°08' E 103°36'0 0.0
2018-May-17 13:26N 01°08' E 103°36'0 0.0
2018-May-17 12:56N 01°08' E 103°36'0 0.0
2018-May-17 12:29N 01°08' E 103°36'0 0.1
2018-May-17 11:58N 01°08' E 103°36'0 0.0
2018-May-17 11:26N 01°08' E 103°36'0 0.0
2018-May-17 10:53N 01°08' E 103°36'0 0.2
2018-May-17 10:29N 01°08' E 103°36'0 0.0
2018-May-17 09:56N 01°08' E 103°36'0 0.1
2018-May-17 09:29N 01°08' E 103°36'0 0.1
2018-May-17 08:59N 01°08' E 103°36'0 0.2
2018-May-17 08:29N 01°08' E 103°36'0 0.2
2018-May-17 07:56N 01°08' E 103°36'0 0.2
2018-May-17 07:26N 01°08' E 103°37'0 0.0
2018-May-17 06:59N 01°08' E 103°37'0 0.0
2018-May-17 06:29N 01°08' E 103°37'0 0.1
2018-May-17 05:59N 01°08' E 103°37'0 0.0
2018-May-17 05:26N 01°08' E 103°37'0 0.0
2018-May-17 04:59N 01°08' E 103°37'0 0.1
2018-May-17 04:29N 01°08' E 103°37'0 0.1
2018-May-17 03:53N 01°08' E 103°37'0 0.1
2018-May-17 03:29N 01°08' E 103°37'0 0.1
2018-May-17 02:59N 01°08' E 103°37'0 0.3
2018-May-17 02:29N 01°08' E 103°37'0 0.0
2018-May-17 01:59N 01°08' E 103°37'0 0.1
2018-May-17 01:26N 01°08' E 103°36'0 0.0
2018-May-17 00:56N 01°08' E 103°36'0 0.0
2018-May-17 00:28N 01°08' E 103°36'0 0.0
2018-May-16 23:59N 01°08' E 103°36'0 0.1
2018-May-16 23:26N 01°08' E 103°37'0 0.0
2018-May-16 22:53N 01°08' E 103°37'0 0.0
2018-May-16 22:26N 01°08' E 103°37'0 0.0
2018-May-16 21:59N 01°08' E 103°37'0 0.1
2018-May-16 21:29N 01°08' E 103°37'0 0.1
2018-May-16 20:59N 01°08' E 103°37'0 0.0
2018-May-16 20:29N 01°08' E 103°37'0 0.0
2018-May-16 19:59N 01°08' E 103°37'0 0.0
2018-May-16 19:26N 01°08' E 103°37'0 0.1
2018-May-16 18:59N 01°08' E 103°37'0 0.0
2018-May-16 18:29N 01°08' E 103°37'0 0.0
2018-May-16 17:59N 01°08' E 103°37'0 0.0
2018-May-16 17:29N 01°08' E 103°37'0 0.0
2018-May-16 16:58N 01°08' E 103°37'0 0.0
2018-May-16 16:28N 01°08' E 103°37'0 0.1
2018-May-16 15:59N 01°08' E 103°37'0 0.0
2018-May-16 15:28N 01°08' E 103°37'0 0.1
2018-May-16 14:55N 01°08' E 103°37'0 0.1
2018-May-16 14:28N 01°08' E 103°37'0 0.1
2018-May-16 13:58N 01°08' E 103°37'0 0.1
2018-May-16 13:29N 01°08' E 103°36'0 0.0
2018-May-16 12:53N 01°08' E 103°36'0 0.2
2018-May-16 12:29N 01°08' E 103°36'0 0.0
2018-May-16 11:59N 01°08' E 103°36'0 0.1
2018-May-16 11:22N 01°08' E 103°36'0 0.2
2018-May-16 10:58N 01°08' E 103°36'0 0.1
2018-May-16 10:28N 01°08' E 103°36'0 0.1
2018-May-16 09:59N 01°08' E 103°36'0 0.2
2018-May-16 09:29N 01°08' E 103°36'0 0.0
2018-May-16 08:56N 01°08' E 103°36'0 0.1
2018-May-16 08:29N 01°08' E 103°36'0 0.1
2018-May-16 07:56N 01°08' E 103°36'0 0.1
2018-May-16 07:29N 01°08' E 103°36'0 0.2
2018-May-16 06:58N 01°08' E 103°37'0 0.1
2018-May-16 06:29N 01°08' E 103°37'0 0.0
2018-May-16 05:58N 01°08' E 103°37'0 0.0
2018-May-16 05:29N 01°08' E 103°37'0 0.1
2018-May-16 04:55N 01°08' E 103°37'0 0.0
2018-May-16 04:20N 01°08' E 103°37'0 0.0
2018-May-16 03:56N 01°08' E 103°37'0 0.1
2018-May-16 03:28N 01°08' E 103°37'0 0.1
2018-May-16 02:58N 01°08' E 103°37'0 0.2
2018-May-16 02:28N 01°08' E 103°37'0 0.2
2018-May-16 01:56N 01°08' E 103°37'0 0.1
2018-May-16 01:17N 01°08' E 103°36'0 0.0
2018-May-16 00:50N 01°08' E 103°36'0 0.0
2018-May-16 00:29N 01°08' E 103°36'0 0.0
2018-May-15 23:59N 01°08' E 103°36'0 0.0
2018-May-15 23:28N 01°08' E 103°36'0 0.0
2018-May-15 22:59N 01°08' E 103°36'0 0.1
2018-May-15 22:29N 01°08' E 103°37'0 0.0
2018-May-15 21:59N 01°08' E 103°37'0 0.0
2018-May-15 21:29N 01°08' E 103°37'0 0.1
2018-May-15 20:59N 01°08' E 103°37'0 0.0
2018-May-15 20:29N 01°08' E 103°37'0 0.1
2018-May-15 19:59N 01°08' E 103°37'0 0.0
2018-May-15 19:28N 01°08' E 103°37'0 0.0
2018-May-15 18:53N 01°08' E 103°37'0 0.1
2018-May-15 18:23N 01°08' E 103°37'0 0.1
2018-May-15 17:59N 01°08' E 103°37'0 0.0
2018-May-15 17:26N 01°08' E 103°37'0 0.0
2018-May-15 16:56N 01°08' E 103°37'0 0.1
2018-May-15 16:26N 01°08' E 103°37'0 0.0
2018-May-15 15:58N 01°08' E 103°37'0 0.0
2018-May-15 15:26N 01°08' E 103°37'0 0.1
2018-May-15 14:59N 01°08' E 103°37'0 0.2
2018-May-15 14:20N 01°08' E 103°37'0 0.1
2018-May-15 13:53N 01°08' E 103°37'0 0.2
2018-May-15 13:29N 01°08' E 103°36'0 0.0
2018-May-15 12:59N 01°08' E 103°36'0 0.1
2018-May-15 12:26N 01°08' E 103°36'0 0.0
2018-May-15 11:55N 01°08' E 103°36'0 0.1
2018-May-15 11:28N 01°08' E 103°36'0 0.1
2018-May-15 10:59N 01°08' E 103°36'0 0.0
2018-May-15 10:29N 01°08' E 103°36'0 0.0
2018-May-15 09:59N 01°08' E 103°36'0 0.0
2018-May-15 09:28N 01°08' E 103°36'0 0.0
2018-May-15 08:58N 01°08' E 103°36'0 0.0
2018-May-15 08:29N 01°08' E 103°36'0 0.1
2018-May-15 07:59N 01°08' E 103°36'0 0.1
2018-May-15 07:28N 01°08' E 103°36'0 0.1
2018-May-15 06:56N 01°08' E 103°36'0 0.1
2018-May-15 06:25N 01°08' E 103°36'0 0.0
2018-May-15 05:56N 01°08' E 103°36'0 0.3
2018-May-15 05:28N 01°08' E 103°36'0 0.1
2018-May-15 04:59N 01°08' E 103°37'0 0.1
2018-May-15 04:29N 01°08' E 103°37'0 0.0
2018-May-15 03:56N 01°08' E 103°37'0 0.1
2018-May-15 03:26N 01°08' E 103°37'0 0.1
2018-May-15 02:58N 01°08' E 103°37'0 0.3
2018-May-15 02:28N 01°08' E 103°37'0 0.2
2018-May-15 01:53N 01°08' E 103°36'0 0.0
2018-May-15 01:14N 01°08' E 103°36'0 0.0
2018-May-15 00:59N 01°08' E 103°36'0 0.1
2018-May-15 00:20N 01°08' E 103°36'0 0.1
2018-May-14 23:50N 01°08' E 103°36'0 0.0
2018-May-14 23:29N 01°08' E 103°36'0 0.0
2018-May-14 22:59N 01°08' E 103°36'0 0.0
2018-May-14 22:29N 01°08' E 103°36'0 0.0
2018-May-14 21:58N 01°08' E 103°36'0 0.0
2018-May-14 21:20N 01°08' E 103°36'0 0.2
2018-May-14 20:56N 01°08' E 103°37'0 0.0
2018-May-14 20:26N 01°08' E 103°37'0 0.0
2018-May-14 19:56N 01°08' E 103°37'0 0.1
2018-May-14 19:28N 01°08' E 103°37'0 0.0
2018-May-14 18:55N 01°08' E 103°37'0 0.1
2018-May-14 18:25N 01°08' E 103°37'0 0.1
2018-May-14 17:58N 01°08' E 103°37'0 0.1
2018-May-14 17:28N 01°08' E 103°37'0 0.0
2018-May-14 16:59N 01°08' E 103°37'0 0.0
2018-May-14 16:28N 01°08' E 103°37'0 0.0
2018-May-14 15:58N 01°08' E 103°37'0 0.0
2018-May-14 15:25N 01°08' E 103°37'0 0.0
2018-May-14 14:59N 01°08' E 103°37'0 0.2
2018-May-14 14:29N 01°08' E 103°37'0 0.3
2018-May-14 13:59N 01°08' E 103°37'0 0.1
2018-May-14 13:26N 01°08' E 103°36'0 0.0
2018-May-14 12:59N 01°08' E 103°36'0 0.1
2018-May-14 12:26N 01°08' E 103°36'0 0.0
2018-May-14 11:50N 01°08' E 103°36'0 0.0
2018-May-14 11:26N 01°08' E 103°36'0 0.0
2018-May-14 10:59N 01°08' E 103°36'0 0.0
2018-May-14 10:29N 01°08' E 103°36'0 0.0
2018-May-14 09:59N 01°08' E 103°36'0 0.0
2018-May-14 09:28N 01°08' E 103°36'0 0.1
2018-May-14 08:58N 01°08' E 103°36'0 0.0
2018-May-14 08:22N 01°08' E 103°36'0 0.0
2018-May-14 07:59N 01°08' E 103°36'0 0.1
2018-May-14 07:29N 01°08' E 103°36'0 0.0
2018-May-14 06:53N 01°08' E 103°36'0 0.1
2018-May-14 06:29N 01°08' E 103°36'0 0.1
2018-May-14 05:59N 01°08' E 103°37'0 0.3
2018-May-14 05:29N 01°08' E 103°37'0 0.1
2018-May-14 04:59N 01°08' E 103°37'0 0.0
2018-May-14 04:29N 01°08' E 103°37'0 0.0
2018-May-14 03:59N 01°08' E 103°37'0 0.0
2018-May-14 03:28N 01°08' E 103°37'0 0.1
2018-May-14 02:59N 01°08' E 103°37'0 0.1
2018-May-14 02:25N 01°08' E 103°37'0 0.3
2018-May-14 01:59N 01°08' E 103°37'0 0.0
2018-May-14 01:29N 01°08' E 103°37'0 0.1
2018-May-14 00:59N 01°08' E 103°36'0 0.0
2018-May-14 00:25N 01°08' E 103°36'0 0.0
2018-May-13 23:58N 01°08' E 103°36'0 0.0
2018-May-13 23:29N 01°08' E 103°36'0 0.0
2018-May-13 22:56N 01°08' E 103°36'0 0.0
2018-May-13 22:25N 01°08' E 103°36'0 0.0
2018-May-13 21:58N 01°08' E 103°36'0 0.0
2018-May-13 21:29N 01°08' E 103°36'0 0.0
2018-May-13 20:56N 01°08' E 103°36'0 0.0
2018-May-13 20:29N 01°08' E 103°36'0 0.1
2018-May-13 19:50N 01°08' E 103°37'0 0.0
2018-May-13 19:29N 01°08' E 103°37'0 0.0
2018-May-13 18:59N 01°08' E 103°37'0 0.1
2018-May-13 18:26N 01°08' E 103°37'0 0.1
2018-May-13 17:59N 01°08' E 103°37'0 0.1
2018-May-13 17:29N 01°08' E 103°37'0 0.1
2018-May-13 16:59N 01°08' E 103°37'0 0.0
2018-May-13 16:29N 01°08' E 103°37'0 0.1
2018-May-13 15:59N 01°08' E 103°37'0 0.1
2018-May-13 15:29N 01°08' E 103°37'0 0.0
2018-May-13 14:56N 01°08' E 103°37'0 0.0
2018-May-13 14:26N 01°08' E 103°37'0 0.0
2018-May-13 13:59N 01°08' E 103°37'0 0.1
2018-May-13 13:26N 01°08' E 103°37'0 0.2
2018-May-13 12:53N 01°08' E 103°37'0 0.1
2018-May-13 10:35N 01°08' E 103°36'0 0.0
2018-May-13 10:17N 01°08' E 103°36'0 0.0
2018-May-13 09:56N 01°08' E 103°36'0 0.0
2018-May-13 08:47N 01°08' E 103°36'0 0.0
2018-May-13 07:23N 01°08' E 103°36'0 0.0
2018-May-13 06:47N 01°08' E 103°36'0 0.1
2018-May-13 03:44N 01°08' E 103°37'0 0.0
2018-May-13 02:26N 01°08' E 103°37'0 0.1
2018-May-13 00:59N 01°08' E 103°37'0 0.1
2018-May-13 00:29N 01°08' E 103°36'0 0.0
2018-May-12 23:58N 01°08' E 103°36'0 0.1
2018-May-12 23:23N 01°08' E 103°36'0 0.1
2018-May-12 22:53N 01°08' E 103°36'0 0.2
2018-May-12 22:29N 01°08' E 103°36'0 0.0
2018-May-12 21:52N 01°08' E 103°36'0 0.1
2018-May-12 21:29N 01°08' E 103°36'0 0.1
2018-May-12 20:59N 01°08' E 103°36'0 0.1
2018-May-12 20:29N 01°08' E 103°36'0 0.0
2018-May-12 19:59N 01°08' E 103°36'1 1.1
2018-May-12 19:31N 01°08' E 103°36'2 4.0
2018-May-12 18:59N 01°08' E 103°34'1 1.5
2018-May-12 18:30N 01°08' E 103°33'2 4.5
2018-May-12 18:00N 01°08' E 103°31'510.1
2018-May-12 17:30N 01°10' E 103°26'611.2
2018-May-12 17:00N 01°13' E 103°22'611.1
2018-May-12 16:30N 01°17' E 103°18'611.2
2018-May-12 15:59N 01°21' E 103°13'610.8
2018-May-12 15:28N 01°24' E 103°09'  

Dump ship's entire track history